Anniston, Missouri
Current Conditions -  °F | °C
As of 10:15 PM on Friday 24 Oct 2014 (Local Time) from KCIR Reporting Station
Haze Haze  
Wind Chill: 12°   Ceiling: Unl
Heat Index: 12°   Visibility: 5mi
Dew Point: 10°   Wind: 0mph
Humidity: 88%   Direction: NA
Pressure: 30.08"   Gusts: NA
Location:  36.83°N, 89.33°W
Report Text: KCIR 250315Z AUTO 00000KT 5SM BR CLR 12/10 A3008 RMK AO2 T01200101
Loading
Personal Weather Stations






























Interactive Weather Map
Tropical Storm Tracking
New forecast layout! Learn more

10-Day Weather Forecast

Advertisements
Track Severe Weather on mobile